Impacts TAF Board INFO
FOR SITUATIONAL AWARENESS. NOT TO BE USED FOR FLIGHT PLANNING PURPOSES.
IDs:

KGTR - Golden Triangle Arpt, MS, US

Issued at 0534 UTC 19 Nov 2017
Updated at 1027 UTC 19 Nov 2017
Potential Impact None Slight Moderate High
Time0956Z 19/11Z 19/12Z 19/13Z 19/14Z 19/15Z 19/16Z 19/17Z 19/18Z 19/19Z 19/20Z 19/21Z 19/22Z 19/23Z>>
Type OBS PRVL PRVL PRVL PRVL PRVL PRVL PRVL PRVL PRVL PRVL PRVL PRVL PRVL
VIS 10 >6 >6 >6 >6 >6 >6 >6 >6 >6 >6 >6 >6 >6
CIG -- -- -- -- -- -- -- -- -- -- -- -- -- --
Cover CLR FEW FEW FEW FEW FEW FEW FEW FEW FEW FEW FEW FEW SKC
FltCat VFR VFR VFR VFR VFR VFR VFR VFR VFR VFR VFR VFR VFR VFR
WX -- -- -- -- -- -- -- -- -- -- -- -- -- --
WDir 310 330 330 330 330 330 330 330 330 330 330 330 330 340
WSpd 4 13 13 13 13 13 13 13 13 13 13 13 13 8
WGst -- 25 25 25 25 25 25 25 25 25 25 25 25 --

Raw TAF
KGTR 190534Z 1906/2006 33013G25KT P6SM FEW250
  FM192300 34008KT P6SM SKC


Raw METAR
KGTR 190956Z AUTO 31004KT 10SM CLR 05/02 A3012 RMK AO2 SLP200 T00500022
KGTR 190856Z AUTO 32006KT 10SM CLR 06/02 A3011 RMK AO2 SLP198 T00610022 51014
KGTR 190756Z AUTO 32009KT 10SM CLR 07/03 A3010 RMK AO2 SLP195 T00720033

METAR Board
Radar Display
Forecast Discussion

FOR SITUATIONAL AWARENESS. NOT TO BE USED FOR FLIGHT PLANNING PURPOSES.